sensor_id;sensor_type;location;lat;lon;timestamp;P1;durP1;ratioP1;P2;durP2;ratioP2
72205;SDS011;60111;48.286;7.812;2022-10-20T00:00:47;14.55;;;10.82;;
72205;SDS011;60111;48.286;7.812;2022-10-20T00:03:20;10.70;;;9.28;;
72205;SDS011;60111;48.286;7.812;2022-10-20T00:05:53;16.85;;;10.10;;
72205;SDS011;60111;48.286;7.812;2022-10-20T00:08:28;12.35;;;8.73;;
72205;SDS011;60111;48.286;7.812;2022-10-20T00:11:00;9.05;;;7.97;;
72205;SDS011;60111;48.286;7.812;2022-10-20T00:13:33;12.45;;;8.25;;
72205;SDS011;60111;48.286;7.812;2022-10-20T00:16:06;12.47;;;8.28;;
72205;SDS011;60111;48.286;7.812;2022-10-20T00:18:40;13.85;;;9.43;;
72205;SDS011;60111;48.286;7.812;2022-10-20T00:21:19;17.10;;;9.77;;
72205;SDS011;60111;48.286;7.812;2022-10-20T00:23:49;14.73;;;9.38;;
72205;SDS011;60111;48.286;7.812;2022-10-20T00:26:23;14.13;;;9.03;;
72205;SDS011;60111;48.286;7.812;2022-10-20T00:28:57;22.50;;;10.53;;
72205;SDS011;60111;48.286;7.812;2022-10-20T00:31:31;13.88;;;9.75;;
72205;SDS011;60111;48.286;7.812;2022-10-20T00:34:04;13.10;;;9.70;;
72205;SDS011;60111;48.286;7.812;2022-10-20T00:36:42;15.90;;;11.83;;
72205;SDS011;60111;48.286;7.812;2022-10-20T00:39:16;17.12;;;11.35;;
72205;SDS011;60111;48.286;7.812;2022-10-20T00:41:48;16.05;;;10.55;;
72205;SDS011;60111;48.286;7.812;2022-10-20T00:50:09;13.55;;;10.18;;
72205;SDS011;60111;48.286;7.812;2022-10-20T00:52:43;11.55;;;9.40;;
72205;SDS011;60111;48.286;7.812;2022-10-20T00:55:25;14.38;;;9.83;;
72205;SDS011;60111;48.286;7.812;2022-10-20T00:57:56;15.75;;;9.90;;
72205;SDS011;60111;48.286;7.812;2022-10-20T01:00:30;19.10;;;11.60;;
72205;SDS011;60111;48.286;7.812;2022-10-20T01:03:03;18.15;;;10.85;;
72205;SDS011;60111;48.286;7.812;2022-10-20T01:05:38;23.20;;;11.95;;
72205;SDS011;60111;48.286;7.812;2022-10-20T01:08:11;17.32;;;10.90;;
72205;SDS011;60111;48.286;7.812;2022-10-20T01:10:50;16.77;;;9.83;;
72205;SDS011;60111;48.286;7.812;2022-10-20T01:13:31;13.18;;;9.43;;
72205;SDS011;60111;48.286;7.812;2022-10-20T01:16:25;14.23;;;9.90;;
72205;SDS011;60111;48.286;7.812;2022-10-20T01:21:59;14.45;;;9.95;;
72205;SDS011;60111;48.286;7.812;2022-10-20T01:24:35;10.95;;;9.85;;
72205;SDS011;60111;48.286;7.812;2022-10-20T01:30:11;12.73;;;10.48;;
72205;SDS011;60111;48.286;7.812;2022-10-20T01:35:52;10.28;;;8.93;;
72205;SDS011;60111;48.286;7.812;2022-10-20T01:38:27;9.70;;;8.70;;
72205;SDS011;60111;48.286;7.812;2022-10-20T01:41:08;9.50;;;8.60;;
72205;SDS011;60111;48.286;7.812;2022-10-20T01:44:03;9.90;;;8.95;;
72205;SDS011;60111;48.286;7.812;2022-10-20T01:46:34;9.73;;;8.80;;
72205;SDS011;60111;48.286;7.812;2022-10-20T01:51:40;9.10;;;8.30;;
72205;SDS011;60111;48.286;7.812;2022-10-20T01:54:20;10.40;;;9.33;;
72205;SDS011;60111;48.286;7.812;2022-10-20T02:00:00;9.63;;;8.55;;
72205;SDS011;60111;48.286;7.812;2022-10-20T02:05:26;9.03;;;8.13;;
72205;SDS011;60111;48.286;7.812;2022-10-20T02:10:49;9.10;;;8.20;;
72205;SDS011;60111;48.286;7.812;2022-10-20T02:13:27;8.13;;;7.37;;
72205;SDS011;60111;48.286;7.812;2022-10-20T02:16:01;8.23;;;7.37;;
72205;SDS011;60111;48.286;7.812;2022-10-20T02:18:38;10.43;;;8.23;;
72205;SDS011;60111;48.286;7.812;2022-10-20T02:21:12;8.23;;;7.42;;
72205;SDS011;60111;48.286;7.812;2022-10-20T02:23:46;11.33;;;8.50;;
72205;SDS011;60111;48.286;7.812;2022-10-20T02:26:22;8.40;;;7.60;;
72205;SDS011;60111;48.286;7.812;2022-10-20T02:29:00;10.18;;;7.92;;
72205;SDS011;60111;48.286;7.812;2022-10-20T02:31:37;9.70;;;8.70;;
72205;SDS011;60111;48.286;7.812;2022-10-20T02:34:15;12.00;;;8.90;;
72205;SDS011;60111;48.286;7.812;2022-10-20T02:36:46;9.28;;;8.38;;
72205;SDS011;60111;48.286;7.812;2022-10-20T02:39:19;9.63;;;8.60;;
72205;SDS011;60111;48.286;7.812;2022-10-20T02:41:51;12.50;;;9.33;;
72205;SDS011;60111;48.286;7.812;2022-10-20T02:44:27;9.23;;;8.28;;
72205;SDS011;60111;48.286;7.812;2022-10-20T02:47:00;8.98;;;8.10;;
72205;SDS011;60111;48.286;7.812;2022-10-20T02:49:32;11.22;;;8.15;;
72205;SDS011;60111;48.286;7.812;2022-10-20T02:52:05;8.65;;;7.85;;
72205;SDS011;60111;48.286;7.812;2022-10-20T02:54:38;9.33;;;8.38;;
72205;SDS011;60111;48.286;7.812;2022-10-20T02:57:11;11.25;;;9.18;;
72205;SDS011;60111;48.286;7.812;2022-10-20T02:59:43;9.48;;;8.43;;
72205;SDS011;60111;48.286;7.812;2022-10-20T03:02:16;10.63;;;9.53;;
72205;SDS011;60111;48.286;7.812;2022-10-20T03:04:49;16.12;;;10.50;;
72205;SDS011;60111;48.286;7.812;2022-10-20T03:07:22;11.45;;;10.23;;
72205;SDS011;60111;48.286;7.812;2022-10-20T03:09:54;15.83;;;10.70;;
72205;SDS011;60111;48.286;7.812;2022-10-20T03:12:27;13.25;;;9.70;;
72205;SDS011;60111;48.286;7.812;2022-10-20T03:14:59;11.20;;;10.00;;
72205;SDS011;60111;48.286;7.812;2022-10-20T03:17:32;13.05;;;10.35;;
72205;SDS011;60111;48.286;7.812;2022-10-20T03:22:38;10.18;;;9.18;;
72205;SDS011;60111;48.286;7.812;2022-10-20T03:25:11;9.55;;;8.05;;
72205;SDS011;60111;48.286;7.812;2022-10-20T03:27:44;8.88;;;7.95;;
72205;SDS011;60111;48.286;7.812;2022-10-20T03:30:16;12.28;;;9.63;;
72205;SDS011;60111;48.286;7.812;2022-10-20T03:32:49;9.88;;;8.43;;
72205;SDS011;60111;48.286;7.812;2022-10-20T03:35:22;10.60;;;9.50;;
72205;SDS011;60111;48.286;7.812;2022-10-20T03:37:54;9.85;;;8.75;;
72205;SDS011;60111;48.286;7.812;2022-10-20T03:40:27;12.30;;;10.35;;
72205;SDS011;60111;48.286;7.812;2022-10-20T03:43:00;14.98;;;10.60;;
72205;SDS011;60111;48.286;7.812;2022-10-20T03:45:32;18.50;;;11.00;;
72205;SDS011;60111;48.286;7.812;2022-10-20T03:48:05;10.58;;;9.43;;
72205;SDS011;60111;48.286;7.812;2022-10-20T03:50:38;12.18;;;9.50;;
72205;SDS011;60111;48.286;7.812;2022-10-20T03:53:12;15.23;;;8.88;;
72205;SDS011;60111;48.286;7.812;2022-10-20T03:55:45;11.97;;;9.93;;
72205;SDS011;60111;48.286;7.812;2022-10-20T03:58:18;12.37;;;9.85;;
72205;SDS011;60111;48.286;7.812;2022-10-20T04:00:52;14.75;;;11.50;;
72205;SDS011;60111;48.286;7.812;2022-10-20T04:03:25;13.17;;;11.03;;
72205;SDS011;60111;48.286;7.812;2022-10-20T04:05:58;15.10;;;11.68;;
72205;SDS011;60111;48.286;7.812;2022-10-20T04:08:31;14.80;;;12.82;;
72205;SDS011;60111;48.286;7.812;2022-10-20T04:11:03;12.33;;;11.03;;
72205;SDS011;60111;48.286;7.812;2022-10-20T04:13:36;11.25;;;9.98;;
72205;SDS011;60111;48.286;7.812;2022-10-20T04:16:09;10.23;;;9.17;;
72205;SDS011;60111;48.286;7.812;2022-10-20T04:18:42;10.32;;;9.23;;
72205;SDS011;60111;48.286;7.812;2022-10-20T04:21:14;10.40;;;9.10;;
72205;SDS011;60111;48.286;7.812;2022-10-20T04:23:47;11.77;;;10.07;;
72205;SDS011;60111;48.286;7.812;2022-10-20T04:26:20;14.38;;;10.48;;
72205;SDS011;60111;48.286;7.812;2022-10-20T04:28:54;15.30;;;10.90;;
72205;SDS011;60111;48.286;7.812;2022-10-20T04:31:27;15.55;;;10.80;;
72205;SDS011;60111;48.286;7.812;2022-10-20T04:33:59;13.28;;;10.32;;
72205;SDS011;60111;48.286;7.812;2022-10-20T04:36:32;11.27;;;9.10;;
72205;SDS011;60111;48.286;7.812;2022-10-20T04:39:05;11.50;;;8.95;;
72205;SDS011;60111;48.286;7.812;2022-10-20T04:41:38;8.73;;;7.50;;
72205;SDS011;60111;48.286;7.812;2022-10-20T04:44:11;11.35;;;9.70;;
72205;SDS011;60111;48.286;7.812;2022-10-20T04:46:44;12.07;;;8.88;;
72205;SDS011;60111;48.286;7.812;2022-10-20T04:49:19;10.53;;;9.35;;
72205;SDS011;60111;48.286;7.812;2022-10-20T04:51:52;11.65;;;9.13;;
72205;SDS011;60111;48.286;7.812;2022-10-20T04:54:24;17.12;;;10.15;;
72205;SDS011;60111;48.286;7.812;2022-10-20T04:56:57;14.93;;;10.17;;
72205;SDS011;60111;48.286;7.812;2022-10-20T04:59:30;14.15;;;10.95;;
72205;SDS011;60111;48.286;7.812;2022-10-20T05:02:03;19.37;;;11.85;;
72205;SDS011;60111;48.286;7.812;2022-10-20T05:04:35;20.13;;;11.20;;
72205;SDS011;60111;48.286;7.812;2022-10-20T05:07:08;21.68;;;11.18;;
72205;SDS011;60111;48.286;7.812;2022-10-20T05:09:41;16.30;;;9.18;;
72205;SDS011;60111;48.286;7.812;2022-10-20T05:12:14;16.17;;;10.20;;
72205;SDS011;60111;48.286;7.812;2022-10-20T05:14:46;12.87;;;10.00;;
72205;SDS011;60111;48.286;7.812;2022-10-20T05:17:19;17.75;;;11.48;;
72205;SDS011;60111;48.286;7.812;2022-10-20T05:19:51;15.80;;;10.28;;
72205;SDS011;60111;48.286;7.812;2022-10-20T05:22:24;13.13;;;9.88;;
72205;SDS011;60111;48.286;7.812;2022-10-20T05:24:57;22.58;;;11.97;;
72205;SDS011;60111;48.286;7.812;2022-10-20T05:27:29;39.40;;;13.43;;
72205;SDS011;60111;48.286;7.812;2022-10-20T05:30:02;15.98;;;12.28;;
72205;SDS011;60111;48.286;7.812;2022-10-20T05:32:35;14.58;;;10.90;;
72205;SDS011;60111;48.286;7.812;2022-10-20T05:35:08;14.45;;;10.75;;
72205;SDS011;60111;48.286;7.812;2022-10-20T05:37:41;18.00;;;12.30;;
72205;SDS011;60111;48.286;7.812;2022-10-20T05:40:14;15.53;;;11.78;;
72205;SDS011;60111;48.286;7.812;2022-10-20T05:42:47;16.12;;;12.95;;
72205;SDS011;60111;48.286;7.812;2022-10-20T05:45:19;13.13;;;10.88;;
72205;SDS011;60111;48.286;7.812;2022-10-20T05:47:52;16.20;;;11.60;;
72205;SDS011;60111;48.286;7.812;2022-10-20T05:50:25;16.75;;;11.68;;
72205;SDS011;60111;48.286;7.812;2022-10-20T05:52:57;13.60;;;11.48;;
72205;SDS011;60111;48.286;7.812;2022-10-20T05:55:31;13.00;;;10.80;;
72205;SDS011;60111;48.286;7.812;2022-10-20T05:58:04;16.52;;;11.60;;
72205;SDS011;60111;48.286;7.812;2022-10-20T06:00:36;15.93;;;12.58;;
72205;SDS011;60111;48.286;7.812;2022-10-20T06:05:43;21.30;;;11.60;;
72205;SDS011;60111;48.286;7.812;2022-10-20T06:08:15;15.58;;;11.95;;
72205;SDS011;60111;48.286;7.812;2022-10-20T06:10:48;13.22;;;10.98;;
72205;SDS011;60111;48.286;7.812;2022-10-20T06:13:21;12.58;;;10.60;;
72205;SDS011;60111;48.286;7.812;2022-10-20T06:15:53;14.03;;;11.43;;
72205;SDS011;60111;48.286;7.812;2022-10-20T06:18:27;15.07;;;11.70;;
72205;SDS011;60111;48.286;7.812;2022-10-20T06:21:01;12.07;;;10.78;;
72205;SDS011;60111;48.286;7.812;2022-10-20T06:23:36;18.77;;;15.10;;
72205;SDS011;60111;48.286;7.812;2022-10-20T06:26:09;16.95;;;12.93;;
72205;SDS011;60111;48.286;7.812;2022-10-20T06:28:45;22.25;;;16.73;;
72205;SDS011;60111;48.286;7.812;2022-10-20T06:31:28;19.82;;;14.85;;
72205;SDS011;60111;48.286;7.812;2022-10-20T06:34:03;16.33;;;12.43;;
72205;SDS011;60111;48.286;7.812;2022-10-20T06:36:37;15.93;;;13.30;;
72205;SDS011;60111;48.286;7.812;2022-10-20T06:39:13;20.70;;;13.93;;
72205;SDS011;60111;48.286;7.812;2022-10-20T06:41:51;19.62;;;14.80;;
72205;SDS011;60111;48.286;7.812;2022-10-20T06:44:24;21.55;;;15.05;;
72205;SDS011;60111;48.286;7.812;2022-10-20T06:46:57;18.85;;;14.18;;
72205;SDS011;60111;48.286;7.812;2022-10-20T06:49:30;24.18;;;15.43;;
72205;SDS011;60111;48.286;7.812;2022-10-20T06:52:03;28.83;;;16.37;;
72205;SDS011;60111;48.286;7.812;2022-10-20T06:54:35;20.25;;;13.78;;
72205;SDS011;60111;48.286;7.812;2022-10-20T06:57:08;18.82;;;12.80;;
72205;SDS011;60111;48.286;7.812;2022-10-20T06:59:41;21.42;;;13.88;;
72205;SDS011;60111;48.286;7.812;2022-10-20T07:02:14;17.23;;;12.50;;
72205;SDS011;60111;48.286;7.812;2022-10-20T07:04:48;21.40;;;12.82;;
72205;SDS011;60111;48.286;7.812;2022-10-20T07:07:21;17.85;;;13.08;;
72205;SDS011;60111;48.286;7.812;2022-10-20T07:09:53;17.83;;;13.27;;
72205;SDS011;60111;48.286;7.812;2022-10-20T07:12:26;22.82;;;15.30;;
72205;SDS011;60111;48.286;7.812;2022-10-20T07:14:59;21.25;;;13.70;;
72205;SDS011;60111;48.286;7.812;2022-10-20T07:17:31;15.75;;;12.37;;
72205;SDS011;60111;48.286;7.812;2022-10-20T07:20:04;16.97;;;11.85;;
72205;SDS011;60111;48.286;7.812;2022-10-20T07:22:37;15.93;;;12.15;;
72205;SDS011;60111;48.286;7.812;2022-10-20T07:25:10;13.75;;;10.18;;
72205;SDS011;60111;48.286;7.812;2022-10-20T07:27:42;17.77;;;10.82;;
72205;SDS011;60111;48.286;7.812;2022-10-20T07:30:15;14.47;;;10.68;;
72205;SDS011;60111;48.286;7.812;2022-10-20T07:32:48;17.52;;;10.98;;
72205;SDS011;60111;48.286;7.812;2022-10-20T07:35:20;15.30;;;10.03;;
72205;SDS011;60111;48.286;7.812;2022-10-20T07:37:53;13.38;;;10.53;;
72205;SDS011;60111;48.286;7.812;2022-10-20T07:40:26;14.23;;;11.03;;
72205;SDS011;60111;48.286;7.812;2022-10-20T07:42:58;14.20;;;10.03;;
72205;SDS011;60111;48.286;7.812;2022-10-20T07:45:31;16.87;;;10.35;;
72205;SDS011;60111;48.286;7.812;2022-10-20T07:48:04;11.10;;;9.55;;
72205;SDS011;60111;48.286;7.812;2022-10-20T07:50:39;13.32;;;9.58;;
72205;SDS011;60111;48.286;7.812;2022-10-20T07:53:12;13.95;;;10.80;;
72205;SDS011;60111;48.286;7.812;2022-10-20T07:55:44;16.55;;;10.55;;
72205;SDS011;60111;48.286;7.812;2022-10-20T07:58:17;18.75;;;12.37;;
72205;SDS011;60111;48.286;7.812;2022-10-20T08:00:49;18.20;;;13.00;;
72205;SDS011;60111;48.286;7.812;2022-10-20T08:03:22;18.75;;;12.05;;
72205;SDS011;60111;48.286;7.812;2022-10-20T08:05:54;21.45;;;12.90;;
72205;SDS011;60111;48.286;7.812;2022-10-20T08:08:29;20.10;;;13.20;;
72205;SDS011;60111;48.286;7.812;2022-10-20T08:11:02;17.20;;;13.30;;
72205;SDS011;60111;48.286;7.812;2022-10-20T08:13:35;24.23;;;11.80;;
72205;SDS011;60111;48.286;7.812;2022-10-20T08:16:10;16.93;;;10.15;;
72205;SDS011;60111;48.286;7.812;2022-10-20T08:18:44;14.93;;;9.68;;
72205;SDS011;60111;48.286;7.812;2022-10-20T08:21:17;15.60;;;9.80;;
72205;SDS011;60111;48.286;7.812;2022-10-20T08:23:52;17.17;;;9.75;;
72205;SDS011;60111;48.286;7.812;2022-10-20T08:26:25;15.25;;;9.05;;
72205;SDS011;60111;48.286;7.812;2022-10-20T08:28:58;10.77;;;8.90;;
72205;SDS011;60111;48.286;7.812;2022-10-20T08:31:32;9.90;;;8.48;;
72205;SDS011;60111;48.286;7.812;2022-10-20T08:34:04;14.13;;;8.80;;
72205;SDS011;60111;48.286;7.812;2022-10-20T08:36:37;13.25;;;8.90;;
72205;SDS011;60111;48.286;7.812;2022-10-20T08:39:12;17.70;;;8.88;;
72205;SDS011;60111;48.286;7.812;2022-10-20T08:41:45;21.05;;;9.63;;
72205;SDS011;60111;48.286;7.812;2022-10-20T08:44:22;13.35;;;8.60;;
72205;SDS011;60111;48.286;7.812;2022-10-20T08:46:56;11.83;;;8.88;;
72205;SDS011;60111;48.286;7.812;2022-10-20T08:49:32;13.00;;;8.88;;
72205;SDS011;60111;48.286;7.812;2022-10-20T08:52:10;15.43;;;8.73;;
72205;SDS011;60111;48.286;7.812;2022-10-20T08:54:46;12.43;;;8.87;;
72205;SDS011;60111;48.286;7.812;2022-10-20T09:00:13;10.87;;;7.87;;
72205;SDS011;60111;48.286;7.812;2022-10-20T09:02:52;12.50;;;7.70;;
72205;SDS011;60111;48.286;7.812;2022-10-20T09:05:26;10.25;;;7.03;;
72205;SDS011;60111;48.286;7.812;2022-10-20T09:08:01;9.38;;;7.35;;
72205;SDS011;60111;48.286;7.812;2022-10-20T09:10:38;13.62;;;9.05;;
72205;SDS011;60111;48.286;7.812;2022-10-20T09:13:27;14.55;;;10.38;;
72205;SDS011;60111;48.286;7.812;2022-10-20T09:16:04;16.12;;;10.93;;
72205;SDS011;60111;48.286;7.812;2022-10-20T09:21:19;17.77;;;13.05;;
72205;SDS011;60111;48.286;7.812;2022-10-20T09:29:16;15.23;;;11.63;;
72205;SDS011;60111;48.286;7.812;2022-10-20T09:31:51;22.58;;;11.30;;
72205;SDS011;60111;48.286;7.812;2022-10-20T09:34:33;15.23;;;11.00;;
72205;SDS011;60111;48.286;7.812;2022-10-20T09:39:47;23.83;;;13.25;;
72205;SDS011;60111;48.286;7.812;2022-10-20T09:42:27;17.27;;;11.68;;
72205;SDS011;60111;48.286;7.812;2022-10-20T09:47:52;18.17;;;11.30;;
72205;SDS011;60111;48.286;7.812;2022-10-20T09:50:32;18.80;;;12.07;;
72205;SDS011;60111;48.286;7.812;2022-10-20T09:53:14;13.08;;;10.88;;
72205;SDS011;60111;48.286;7.812;2022-10-20T09:55:46;22.15;;;11.78;;
72205;SDS011;60111;48.286;7.812;2022-10-20T09:58:31;16.87;;;11.63;;
72205;SDS011;60111;48.286;7.812;2022-10-20T10:01:13;19.42;;;11.30;;
72205;SDS011;60111;48.286;7.812;2022-10-20T10:03:48;17.60;;;11.70;;
72205;SDS011;60111;48.286;7.812;2022-10-20T10:06:39;16.10;;;11.85;;
72205;SDS011;60111;48.286;7.812;2022-10-20T10:09:34;16.67;;;11.50;;
72205;SDS011;60111;48.286;7.812;2022-10-20T10:14:56;18.92;;;12.13;;
72205;SDS011;60111;48.286;7.812;2022-10-20T10:17:37;12.93;;;10.43;;
72205;SDS011;60111;48.286;7.812;2022-10-20T10:22:46;17.70;;;11.43;;
72205;SDS011;60111;48.286;7.812;2022-10-20T10:25:24;23.95;;;11.85;;
72205;SDS011;60111;48.286;7.812;2022-10-20T10:28:01;15.32;;;11.60;;
72205;SDS011;60111;48.286;7.812;2022-10-20T10:30:37;17.80;;;12.30;;
72205;SDS011;60111;48.286;7.812;2022-10-20T10:38:31;22.67;;;11.80;;
72205;SDS011;60111;48.286;7.812;2022-10-20T10:46:52;14.60;;;9.75;;
72205;SDS011;60111;48.286;7.812;2022-10-20T10:49:34;21.93;;;11.67;;
72205;SDS011;60111;48.286;7.812;2022-10-20T11:03:22;20.70;;;13.03;;
72205;SDS011;60111;48.286;7.812;2022-10-20T11:06:13;19.35;;;12.30;;
72205;SDS011;60111;48.286;7.812;2022-10-20T11:09:37;16.57;;;12.00;;
72205;SDS011;60111;48.286;7.812;2022-10-20T11:11:39;22.10;;;12.55;;
72205;SDS011;60111;48.286;7.812;2022-10-20T11:14:21;24.98;;;14.63;;
72205;SDS011;60111;48.286;7.812;2022-10-20T11:22:53;23.22;;;13.72;;
72205;SDS011;60111;48.286;7.812;2022-10-20T11:25:27;26.12;;;13.78;;
72205;SDS011;60111;48.286;7.812;2022-10-20T11:28:00;26.42;;;14.47;;
72205;SDS011;60111;48.286;7.812;2022-10-20T11:30:33;18.85;;;13.10;;
72205;SDS011;60111;48.286;7.812;2022-10-20T11:33:15;16.95;;;12.10;;
72205;SDS011;60111;48.286;7.812;2022-10-20T11:35:57;19.57;;;11.60;;
72205;SDS011;60111;48.286;7.812;2022-10-20T11:38:42;24.30;;;12.75;;
72205;SDS011;60111;48.286;7.812;2022-10-20T11:41:20;25.50;;;16.50;;
72205;SDS011;60111;48.286;7.812;2022-10-20T11:44:01;22.90;;;15.10;;
72205;SDS011;60111;48.286;7.812;2022-10-20T11:46:46;17.60;;;12.03;;
72205;SDS011;60111;48.286;7.812;2022-10-20T11:49:32;17.73;;;11.77;;
72205;SDS011;60111;48.286;7.812;2022-10-20T11:52:15;19.02;;;12.73;;
72205;SDS011;60111;48.286;7.812;2022-10-20T11:57:56;24.23;;;13.77;;
72205;SDS011;60111;48.286;7.812;2022-10-20T12:04:10;20.20;;;12.65;;
72205;SDS011;60111;48.286;7.812;2022-10-20T12:06:18;21.97;;;13.62;;
72205;SDS011;60111;48.286;7.812;2022-10-20T12:14:40;22.33;;;12.70;;
72205;SDS011;60111;48.286;7.812;2022-10-20T12:22:56;23.87;;;12.80;;
72205;SDS011;60111;48.286;7.812;2022-10-20T12:25:34;21.97;;;13.40;;
72205;SDS011;60111;48.286;7.812;2022-10-20T12:30:58;25.00;;;12.47;;
72205;SDS011;60111;48.286;7.812;2022-10-20T12:36:27;17.48;;;11.03;;
72205;SDS011;60111;48.286;7.812;2022-10-20T12:41:55;21.62;;;11.95;;
72205;SDS011;60111;48.286;7.812;2022-10-20T12:44:39;20.87;;;10.90;;
72205;SDS011;60111;48.286;7.812;2022-10-20T12:47:29;14.67;;;10.57;;
72205;SDS011;60111;48.286;7.812;2022-10-20T12:49:56;14.85;;;10.65;;
72205;SDS011;60111;48.286;7.812;2022-10-20T12:52:34;12.13;;;8.93;;
72205;SDS011;60111;48.286;7.812;2022-10-20T12:55:20;11.45;;;9.33;;
72205;SDS011;60111;48.286;7.812;2022-10-20T13:11:41;15.75;;;11.00;;
72205;SDS011;60111;48.286;7.812;2022-10-20T13:14:34;16.45;;;9.90;;
72205;SDS011;60111;48.286;7.812;2022-10-20T13:19:52;11.73;;;9.50;;
72205;SDS011;60111;48.286;7.812;2022-10-20T13:25:13;22.10;;;11.68;;
72205;SDS011;60111;48.286;7.812;2022-10-20T13:27:48;11.30;;;8.70;;
72205;SDS011;60111;48.286;7.812;2022-10-20T13:30:21;15.57;;;10.20;;
72205;SDS011;60111;48.286;7.812;2022-10-20T13:33:12;18.52;;;10.85;;
72205;SDS011;60111;48.286;7.812;2022-10-20T13:35:41;36.50;;;14.10;;
72205;SDS011;60111;48.286;7.812;2022-10-20T13:38:23;19.98;;;11.63;;
72205;SDS011;60111;48.286;7.812;2022-10-20T13:41:04;23.25;;;12.33;;
72205;SDS011;60111;48.286;7.812;2022-10-20T13:43:41;18.75;;;11.97;;
72205;SDS011;60111;48.286;7.812;2022-10-20T13:46:47;22.27;;;12.18;;
72205;SDS011;60111;48.286;7.812;2022-10-20T13:52:08;14.20;;;9.85;;
72205;SDS011;60111;48.286;7.812;2022-10-20T13:54:47;15.80;;;11.03;;
72205;SDS011;60111;48.286;7.812;2022-10-20T13:57:24;23.35;;;11.70;;
72205;SDS011;60111;48.286;7.812;2022-10-20T14:00:20;18.32;;;10.03;;
72205;SDS011;60111;48.286;7.812;2022-10-20T14:02:55;26.07;;;11.73;;
72205;SDS011;60111;48.286;7.812;2022-10-20T14:05:36;15.87;;;10.33;;
72205;SDS011;60111;48.286;7.812;2022-10-20T14:08:10;14.15;;;9.50;;
72205;SDS011;60111;48.286;7.812;2022-10-20T14:10:53;13.70;;;9.83;;
72205;SDS011;60111;48.286;7.812;2022-10-20T14:13:29;15.80;;;9.67;;
72205;SDS011;60111;48.286;7.812;2022-10-20T14:16:04;11.80;;;8.40;;
72205;SDS011;60111;48.286;7.812;2022-10-20T14:18:41;22.93;;;11.28;;
72205;SDS011;60111;48.286;7.812;2022-10-20T14:21:15;16.60;;;8.98;;
72205;SDS011;60111;48.286;7.812;2022-10-20T14:23:49;21.12;;;10.95;;
72205;SDS011;60111;48.286;7.812;2022-10-20T14:26:22;15.68;;;11.00;;
72205;SDS011;60111;48.286;7.812;2022-10-20T14:28:55;18.03;;;9.63;;
72205;SDS011;60111;48.286;7.812;2022-10-20T14:31:29;17.63;;;10.03;;
72205;SDS011;60111;48.286;7.812;2022-10-20T14:34:02;16.42;;;11.12;;
72205;SDS011;60111;48.286;7.812;2022-10-20T14:36:36;18.70;;;12.00;;
72205;SDS011;60111;48.286;7.812;2022-10-20T14:39:23;13.62;;;9.80;;
72205;SDS011;60111;48.286;7.812;2022-10-20T14:41:59;10.70;;;8.20;;
72205;SDS011;60111;48.286;7.812;2022-10-20T14:44:34;21.00;;;10.95;;
72205;SDS011;60111;48.286;7.812;2022-10-20T14:47:07;22.55;;;14.03;;
72205;SDS011;60111;48.286;7.812;2022-10-20T14:49:43;29.42;;;14.87;;
72205;SDS011;60111;48.286;7.812;2022-10-20T14:52:22;21.55;;;13.85;;
72205;SDS011;60111;48.286;7.812;2022-10-20T14:54:56;19.50;;;14.40;;
72205;SDS011;60111;48.286;7.812;2022-10-20T14:57:36;21.65;;;14.53;;
72205;SDS011;60111;48.286;7.812;2022-10-20T15:00:32;22.75;;;14.65;;
72205;SDS011;60111;48.286;7.812;2022-10-20T15:02:57;26.05;;;14.28;;
72205;SDS011;60111;48.286;7.812;2022-10-20T15:05:40;27.87;;;16.82;;
72205;SDS011;60111;48.286;7.812;2022-10-20T15:08:20;21.33;;;14.45;;
72205;SDS011;60111;48.286;7.812;2022-10-20T15:10:54;21.55;;;13.72;;
72205;SDS011;60111;48.286;7.812;2022-10-20T15:13:28;38.30;;;25.57;;
72205;SDS011;60111;48.286;7.812;2022-10-20T15:16:03;28.42;;;19.12;;
72205;SDS011;60111;48.286;7.812;2022-10-20T15:18:35;33.08;;;18.65;;
72205;SDS011;60111;48.286;7.812;2022-10-20T15:21:08;32.55;;;19.55;;
72205;SDS011;60111;48.286;7.812;2022-10-20T15:23:41;27.30;;;18.90;;
72205;SDS011;60111;48.286;7.812;2022-10-20T15:26:14;25.60;;;15.90;;
72205;SDS011;60111;48.286;7.812;2022-10-20T15:28:47;25.95;;;16.32;;
72205;SDS011;60111;48.286;7.812;2022-10-20T15:31:22;19.65;;;14.25;;
72205;SDS011;60111;48.286;7.812;2022-10-20T15:33:56;19.45;;;14.38;;
72205;SDS011;60111;48.286;7.812;2022-10-20T15:36:29;25.80;;;18.50;;
72205;SDS011;60111;48.286;7.812;2022-10-20T15:39:04;39.33;;;26.13;;
72205;SDS011;60111;48.286;7.812;2022-10-20T15:41:37;41.28;;;27.70;;
72205;SDS011;60111;48.286;7.812;2022-10-20T15:46:50;32.50;;;23.45;;
72205;SDS011;60111;48.286;7.812;2022-10-20T15:49:23;43.00;;;26.35;;
72205;SDS011;60111;48.286;7.812;2022-10-20T15:51:55;41.77;;;27.17;;
72205;SDS011;60111;48.286;7.812;2022-10-20T15:54:28;33.10;;;21.55;;
72205;SDS011;60111;48.286;7.812;2022-10-20T15:57:03;25.23;;;17.62;;
72205;SDS011;60111;48.286;7.812;2022-10-20T15:59:36;25.10;;;17.87;;
72205;SDS011;60111;48.286;7.812;2022-10-20T16:02:12;26.25;;;17.55;;
72205;SDS011;60111;48.286;7.812;2022-10-20T16:04:44;20.97;;;15.43;;
72205;SDS011;60111;48.286;7.812;2022-10-20T16:07:17;28.17;;;18.73;;
72205;SDS011;60111;48.286;7.812;2022-10-20T16:09:49;23.52;;;16.00;;
72205;SDS011;60111;48.286;7.812;2022-10-20T16:12:22;25.23;;;15.63;;
72205;SDS011;60111;48.286;7.812;2022-10-20T16:14:55;19.67;;;13.63;;
72205;SDS011;60111;48.286;7.812;2022-10-20T16:17:28;17.35;;;12.82;;
72205;SDS011;60111;48.286;7.812;2022-10-20T16:20:00;15.55;;;12.50;;
72205;SDS011;60111;48.286;7.812;2022-10-20T16:22:34;23.87;;;16.43;;
72205;SDS011;60111;48.286;7.812;2022-10-20T16:25:07;23.90;;;15.78;;
72205;SDS011;60111;48.286;7.812;2022-10-20T16:27:40;23.37;;;15.10;;
72205;SDS011;60111;48.286;7.812;2022-10-20T16:30:13;29.27;;;18.10;;
72205;SDS011;60111;48.286;7.812;2022-10-20T16:32:46;35.90;;;24.03;;
72205;SDS011;60111;48.286;7.812;2022-10-20T16:35:19;33.15;;;20.32;;
72205;SDS011;60111;48.286;7.812;2022-10-20T16:37:52;31.37;;;18.27;;
72205;SDS011;60111;48.286;7.812;2022-10-20T16:40:25;27.45;;;19.65;;
72205;SDS011;60111;48.286;7.812;2022-10-20T16:43:01;29.70;;;19.85;;
72205;SDS011;60111;48.286;7.812;2022-10-20T16:45:35;30.85;;;21.20;;
72205;SDS011;60111;48.286;7.812;2022-10-20T16:48:09;64.50;;;40.38;;
72205;SDS011;60111;48.286;7.812;2022-10-20T16:50:45;39.70;;;23.25;;
72205;SDS011;60111;48.286;7.812;2022-10-20T16:53:17;32.13;;;20.52;;
72205;SDS011;60111;48.286;7.812;2022-10-20T16:55:53;38.90;;;25.17;;
72205;SDS011;60111;48.286;7.812;2022-10-20T16:58:26;31.93;;;22.13;;
72205;SDS011;60111;48.286;7.812;2022-10-20T17:01:05;34.20;;;22.52;;
72205;SDS011;60111;48.286;7.812;2022-10-20T17:03:41;26.42;;;18.35;;
72205;SDS011;60111;48.286;7.812;2022-10-20T17:06:16;25.37;;;17.73;;
72205;SDS011;60111;48.286;7.812;2022-10-20T17:08:50;24.92;;;16.42;;
72205;SDS011;60111;48.286;7.812;2022-10-20T17:11:25;26.67;;;17.30;;
72205;SDS011;60111;48.286;7.812;2022-10-20T17:13:59;27.47;;;19.57;;
72205;SDS011;60111;48.286;7.812;2022-10-20T17:16:32;29.65;;;19.77;;
72205;SDS011;60111;48.286;7.812;2022-10-20T17:19:07;27.33;;;18.90;;
72205;SDS011;60111;48.286;7.812;2022-10-20T17:21:40;31.93;;;22.05;;
72205;SDS011;60111;48.286;7.812;2022-10-20T17:24:13;41.30;;;24.50;;